createdAt,value
2023-04-01T00:02:57.772Z,1.42
2023-04-01T00:06:00.680Z,1.30
2023-04-01T00:09:02.604Z,1.15
2023-04-01T00:12:05.999Z,1.33
2023-04-01T00:15:11.115Z,1.30
2023-04-01T00:18:14.846Z,1.17
2023-04-01T00:21:17.084Z,1.23
2023-04-01T00:24:20.137Z,1.17
2023-04-01T00:27:23.448Z,1.20
2023-04-01T00:30:25.928Z,1.40
2023-04-01T00:33:28.607Z,1.45
2023-04-01T00:36:30.770Z,1.38
2023-04-01T00:39:33.802Z,1.42
2023-04-01T00:42:38.061Z,1.10
2023-04-01T00:45:42.097Z,1.30
2023-04-01T00:48:46.415Z,1.23
2023-04-01T00:51:51.365Z,1.38
2023-04-01T00:55:00.155Z,1.42
2023-04-01T00:58:08.680Z,1.30
2023-04-01T01:01:11.619Z,1.10
2023-04-01T01:04:23.421Z,1.00
2023-04-01T01:07:36.949Z,1.10
2023-04-01T01:10:40.170Z,1.27
2023-04-01T01:13:49.788Z,1.15
2023-04-01T01:16:57.651Z,1.38
2023-04-01T01:20:26.879Z,1.05
2023-04-01T01:24:00.631Z,1.23
2023-04-01T01:27:05.872Z,1.45
2023-04-01T01:30:27.708Z,1.02
2023-04-01T01:33:45.816Z,1.17
2023-04-01T01:36:54.776Z,1.00
2023-04-01T01:39:59.506Z,1.33
2023-04-01T01:43:06.661Z,1.10
2023-04-01T01:46:12.664Z,0.70
2023-04-01T01:49:16.525Z,1.00
2023-04-01T01:52:20.106Z,1.02
2023-04-01T01:55:29.745Z,0.80
2023-04-01T01:58:41.397Z,1.00
2023-04-01T02:01:47.687Z,0.80
2023-04-01T02:04:51.576Z,0.90
2023-04-01T02:08:02.344Z,0.65
2023-04-01T02:11:07.807Z,0.90
2023-04-01T02:14:14.781Z,0.73
2023-04-01T02:17:19.097Z,0.47
2023-04-01T02:20:23.833Z,1.25
2023-04-01T02:23:29.012Z,0.80
2023-04-01T02:26:31.618Z,0.75
2023-04-01T02:29:34.588Z,0.80
2023-04-01T02:32:39.352Z,1.05
2023-04-01T02:35:41.589Z,0.90
2023-04-01T02:38:46.489Z,0.82
2023-04-01T02:41:48.394Z,1.10
2023-04-01T02:44:50.371Z,0.60
2023-04-01T02:47:52.321Z,0.55
2023-04-01T02:50:54.353Z,0.70
2023-04-01T02:53:57.590Z,0.70
2023-04-01T02:57:00.536Z,0.90
2023-04-01T03:00:02.448Z,0.80
2023-04-01T03:03:04.850Z,0.70
2023-04-01T03:06:08.165Z,0.60
2023-04-01T03:09:11.738Z,0.47
2023-04-01T03:12:13.706Z,0.90
2023-04-01T03:15:15.868Z,0.60
2023-04-01T03:18:18.659Z,0.52
2023-04-01T03:21:23.190Z,0.70
2023-04-01T03:24:26.711Z,0.77
2023-04-01T03:27:28.619Z,0.52
2023-04-01T03:30:34.744Z,0.75
2023-04-01T03:33:37.738Z,0.38
2023-04-01T03:36:39.646Z,0.70
2023-04-01T03:39:44.638Z,0.98
2023-04-01T03:42:46.903Z,0.75
2023-04-01T03:45:50.829Z,0.93
2023-04-01T03:48:53.275Z,0.55
2023-04-01T03:51:55.163Z,0.60
2023-04-01T03:54:58.672Z,0.65
2023-04-01T03:58:03.014Z,0.98
2023-04-01T04:01:13.941Z,0.70
2023-04-01T04:04:16.210Z,0.80
2023-04-01T04:07:18.129Z,0.70
2023-04-01T04:10:21.803Z,0.77
2023-04-01T04:13:23.694Z,0.38
2023-04-01T04:16:25.919Z,0.60
2023-04-01T04:19:32.313Z,0.70
2023-04-01T04:22:34.238Z,0.63
2023-04-01T04:25:37.512Z,0.60
2023-04-01T04:28:39.645Z,0.90
2023-04-01T04:31:42.227Z,0.82
2023-04-01T04:34:44.145Z,0.90
2023-04-01T04:37:46.093Z,0.98
2023-04-01T04:40:49.421Z,0.50
2023-04-01T04:43:53.963Z,0.73
2023-04-01T04:46:58.348Z,0.90
2023-04-01T04:50:01.258Z,0.85
2023-04-01T04:53:03.303Z,0.80
2023-04-01T04:56:07.026Z,1.00
2023-04-01T04:59:09.197Z,1.10
2023-04-01T05:02:11.323Z,0.90
2023-04-01T05:05:13.232Z,0.65
2023-04-01T05:08:16.249Z,0.90
2023-04-01T05:11:21.489Z,0.88
2023-04-01T05:14:23.337Z,1.30
2023-04-01T05:17:26.267Z,1.02
2023-04-01T05:20:28.225Z,0.80
2023-04-01T05:23:34.209Z,1.15
2023-04-01T05:26:38.046Z,1.90
2023-04-01T05:29:39.885Z,1.00
2023-04-01T05:32:42.064Z,0.90
2023-04-01T05:35:43.978Z,1.10
2023-04-01T05:38:49.129Z,1.73
2023-04-01T05:41:52.359Z,1.00
2023-04-01T05:44:55.119Z,1.02
2023-04-01T05:47:57.088Z,1.10
2023-04-01T05:50:59.935Z,1.00
2023-04-01T05:54:01.832Z,0.88
2023-04-01T05:57:05.275Z,1.02
2023-04-01T06:00:08.456Z,1.20
2023-04-01T06:03:10.585Z,0.80
2023-04-01T06:06:16.745Z,0.98
2023-04-01T06:09:22.712Z,1.10
2023-04-01T06:12:51.488Z,1.20
2023-04-01T06:16:01.459Z,0.90
2023-04-01T06:19:26.817Z,1.05
2023-04-01T06:22:54.846Z,0.95
2023-04-01T06:26:19.348Z,0.85
2023-04-01T06:29:50.028Z,0.93
2023-04-01T06:33:09.209Z,0.98
2023-04-01T06:36:24.921Z,0.60
2023-04-01T06:39:39.220Z,1.83
2023-04-01T06:43:02.089Z,0.50
2023-04-01T06:46:14.993Z,0.85
2023-04-01T06:49:34.863Z,1.10
2023-04-01T06:52:50.252Z,0.98
2023-04-01T06:55:58.565Z,1.08
2023-04-01T06:59:06.592Z,0.82
2023-04-01T07:02:24.244Z,0.98
2023-04-01T07:05:30.351Z,0.90
2023-04-01T07:08:37.963Z,0.90
2023-04-01T07:11:41.314Z,1.10
2023-04-01T07:14:45.848Z,0.90
2023-04-01T07:17:54.890Z,1.38
2023-04-01T07:20:58.896Z,1.00
2023-04-01T07:24:05.525Z,0.90
2023-04-01T07:27:10.996Z,0.82
2023-04-01T07:30:17.230Z,0.82
2023-04-01T07:33:27.355Z,0.88
2023-04-01T07:36:36.228Z,0.70
2023-04-01T07:39:48.580Z,0.57
2023-04-01T07:43:06.586Z,0.90
2023-04-01T07:46:19.153Z,0.85
2023-04-01T07:49:31.863Z,0.73
2023-04-01T07:52:40.050Z,0.57
2023-04-01T07:55:49.170Z,0.80
2023-04-01T07:59:00.470Z,0.60
2023-04-01T08:02:11.163Z,1.10
2023-04-01T08:05:23.494Z,0.95
2023-04-01T08:08:36.934Z,1.15
2023-04-01T08:11:52.368Z,0.95
2023-04-01T08:15:05.861Z,0.77
2023-04-01T08:18:19.021Z,0.70
2023-04-01T08:21:26.483Z,0.75
2023-04-01T08:24:44.716Z,0.75
2023-04-01T08:27:54.550Z,0.73
2023-04-01T08:31:02.860Z,0.93
2023-04-01T08:34:07.100Z,0.82
2023-04-01T08:37:15.322Z,0.60
2023-04-01T08:40:56.647Z,1.00
2023-04-01T08:44:21.769Z,0.70
2023-04-01T08:47:53.903Z,0.90
2023-04-01T08:51:25.113Z,0.90
2023-04-01T08:54:47.258Z,0.80
2023-04-01T08:58:02.895Z,1.00
2023-04-01T09:01:15.350Z,1.10
2023-04-01T09:05:04.375Z,0.90
2023-04-01T09:08:21.210Z,0.77
2023-04-01T09:11:32.309Z,0.90
2023-04-01T09:14:57.881Z,0.60
2023-04-01T09:18:21.374Z,0.70
2023-04-01T09:21:33.104Z,0.85
2023-04-01T09:25:10.746Z,1.10
2023-04-01T09:28:19.701Z,0.68
2023-04-01T09:31:42.208Z,0.75
2023-04-01T09:34:56.116Z,0.88
2023-04-01T09:38:19.073Z,1.88
2023-04-01T09:41:30.686Z,0.75
2023-04-01T09:44:36.153Z,1.27
2023-04-01T09:47:52.105Z,0.65
2023-04-01T09:51:04.177Z,0.93
2023-04-01T09:57:56.340Z,1.20
2023-04-01T10:01:19.721Z,0.85
2023-04-01T10:05:06.953Z,0.80
2023-04-01T10:08:38.196Z,0.82
2023-04-01T10:12:19.933Z,0.70
2023-04-01T10:15:42.055Z,0.85
2023-04-01T10:19:11.553Z,0.90
2023-04-01T10:22:29.042Z,1.08
2023-04-01T10:25:58.153Z,1.00
2023-04-01T10:29:49.123Z,0.80
2023-04-01T10:33:39.385Z,0.95
2023-04-01T10:40:26.572Z,0.80
2023-04-01T10:44:21.822Z,0.80
2023-04-01T10:47:44.918Z,0.93
2023-04-01T10:51:12.857Z,0.85
2023-04-01T10:54:42.415Z,0.70
2023-04-01T10:58:11.691Z,0.60
2023-04-01T11:01:37.638Z,0.75
2023-04-01T11:05:09.004Z,0.80
2023-04-01T11:08:41.507Z,0.68
2023-04-01T11:12:13.637Z,0.55
2023-04-01T11:15:48.033Z,0.70
2023-04-01T11:19:20.642Z,0.70
2023-04-01T11:22:42.531Z,0.90
2023-04-01T11:25:57.120Z,0.60
2023-04-01T11:29:30.188Z,0.70
2023-04-01T11:32:54.113Z,0.63
2023-04-01T11:36:12.970Z,0.55
2023-04-01T11:39:24.906Z,0.50
2023-04-01T11:42:41.521Z,0.65
2023-04-01T11:45:51.845Z,0.70
2023-04-01T11:49:07.755Z,0.80
2023-04-01T11:52:22.833Z,0.63
2023-04-01T11:55:33.376Z,0.55
2023-04-01T11:58:47.936Z,0.35
2023-04-01T12:02:04.304Z,0.80
2023-04-01T12:05:35.894Z,0.68
2023-04-01T12:08:47.660Z,0.63
2023-04-01T12:12:00.688Z,0.60
2023-04-01T12:15:18.962Z,0.50
2023-04-01T12:18:28.295Z,0.50
2023-04-01T12:21:37.405Z,0.50
2023-04-01T12:24:50.463Z,0.60
2023-04-01T12:28:06.716Z,0.70
2023-04-01T12:31:20.485Z,0.40
2023-04-01T12:34:58.981Z,0.65
2023-04-01T12:38:17.644Z,0.70
2023-04-01T12:41:27.792Z,0.90
2023-04-01T12:44:41.242Z,0.60
2023-04-01T12:48:08.415Z,0.70
2023-04-01T12:51:38.605Z,0.70
2023-04-01T12:55:34.197Z,0.50
2023-04-01T12:59:08.745Z,0.63
2023-04-01T13:02:19.064Z,0.60
2023-04-01T13:05:56.983Z,0.65
2023-04-01T13:09:17.982Z,0.90
2023-04-01T13:12:44.361Z,0.40
2023-04-01T13:15:53.161Z,0.50
2023-04-01T13:19:00.957Z,0.38
2023-04-01T13:22:12.637Z,0.45
2023-04-01T13:25:29.047Z,0.60
2023-04-01T13:28:37.561Z,0.57
2023-04-01T13:31:56.326Z,0.63
2023-04-01T13:35:13.434Z,0.50
2023-04-01T13:38:40.543Z,0.60
2023-04-01T13:42:03.557Z,0.45
2023-04-01T13:45:15.394Z,0.63
2023-04-01T13:52:10.017Z,0.60
2023-04-01T13:59:06.549Z,0.43
2023-04-01T14:02:30.978Z,0.60
2023-04-01T14:05:57.406Z,0.57
2023-04-01T14:09:42.417Z,0.30
2023-04-01T14:12:52.607Z,0.52
2023-04-01T14:16:07.993Z,0.43
2023-04-01T14:19:27.732Z,0.50
2023-04-01T14:22:38.517Z,0.25
2023-04-01T14:26:18.847Z,0.20
2023-04-01T14:29:33.628Z,0.50
2023-04-01T14:32:47.795Z,0.30
2023-04-01T14:36:05.322Z,0.30
2023-04-01T14:39:30.516Z,0.40
2023-04-01T14:42:54.509Z,0.50
2023-04-01T14:46:15.056Z,0.40
2023-04-01T14:49:22.968Z,0.38
2023-04-01T14:52:29.834Z,0.38
2023-04-01T14:55:35.934Z,0.60
2023-04-01T14:58:45.406Z,0.70
2023-04-01T15:01:57.258Z,0.65
2023-04-01T15:05:15.998Z,0.60
2023-04-01T15:08:22.471Z,0.50
2023-04-01T15:11:39.217Z,0.82
2023-04-01T15:14:58.011Z,0.60
2023-04-01T15:18:11.426Z,0.40
2023-04-01T15:21:20.283Z,0.40
2023-04-01T15:24:25.705Z,0.45
2023-04-01T15:27:43.897Z,0.40
2023-04-01T15:30:53.100Z,0.68
2023-04-01T15:34:21.328Z,0.30
2023-04-01T15:37:39.698Z,0.32
2023-04-01T15:40:48.156Z,0.45
2023-04-01T15:43:53.427Z,0.20
2023-04-01T15:46:58.222Z,0.40
2023-04-01T15:50:23.160Z,0.25
2023-04-01T15:53:45.200Z,0.30
2023-04-01T15:57:05.583Z,0.22
2023-04-01T16:00:20.802Z,0.38
2023-04-01T16:03:36.012Z,0.35
2023-04-01T16:07:02.373Z,0.30
2023-04-01T16:10:22.899Z,0.22
2023-04-01T16:13:36.534Z,0.15
2023-04-01T16:16:54.902Z,0.43
2023-04-01T16:23:13.161Z,0.40
2023-04-01T16:26:23.738Z,0.30
2023-04-01T16:29:36.511Z,0.17
2023-04-01T16:32:45.912Z,0.32
2023-04-01T16:35:57.022Z,0.30
2023-04-01T16:39:37.476Z,0.32
2023-04-01T16:42:50.863Z,0.40
2023-04-01T16:46:04.023Z,0.30
2023-04-01T16:49:24.392Z,0.30
2023-04-01T16:52:44.659Z,0.43
2023-04-01T16:55:52.736Z,0.40
2023-04-01T16:59:03.882Z,0.30
2023-04-01T17:02:14.527Z,0.52
2023-04-01T17:05:16.841Z,0.50
2023-04-01T17:08:31.532Z,0.43
2023-04-01T17:11:41.771Z,0.70
2023-04-01T17:14:53.028Z,0.50
2023-04-01T17:18:04.964Z,0.40
2023-04-01T17:21:11.717Z,0.30
2023-04-01T17:24:30.320Z,0.45
2023-04-01T17:27:49.772Z,0.47
2023-04-01T17:31:03.706Z,0.47
2023-04-01T17:34:28.468Z,0.50
2023-04-01T17:37:47.580Z,0.47
2023-04-01T17:41:04.705Z,0.82
2023-04-01T17:44:25.185Z,0.60
2023-04-01T17:47:51.960Z,0.50
2023-04-01T17:51:09.813Z,0.60
2023-04-01T17:54:26.100Z,0.73
2023-04-01T17:57:45.678Z,0.60
2023-04-01T18:01:01.979Z,0.65
2023-04-01T18:04:49.443Z,0.70
2023-04-01T18:08:10.522Z,0.80
2023-04-01T18:11:24.791Z,0.70
2023-04-01T18:14:51.888Z,0.60
2023-04-01T18:18:07.248Z,0.88
2023-04-01T18:21:23.624Z,0.70
2023-04-01T18:24:31.863Z,0.98
2023-04-01T18:27:40.436Z,1.10
2023-04-01T18:30:45.717Z,1.20
2023-04-01T18:33:59.412Z,1.33
2023-04-01T18:37:18.932Z,1.50
2023-04-01T18:40:28.496Z,1.50
2023-04-01T18:43:40.661Z,1.48
2023-04-01T18:46:53.814Z,1.50
2023-04-01T18:50:03.194Z,1.00
2023-04-01T18:53:23.838Z,1.17
2023-04-01T18:56:32.047Z,1.00
2023-04-01T18:59:42.600Z,1.27
2023-04-01T19:02:52.960Z,1.65
2023-04-01T19:06:02.536Z,1.27
2023-04-01T19:09:19.887Z,1.02
2023-04-01T19:12:39.858Z,1.20
2023-04-01T19:15:52.043Z,1.02
2023-04-01T19:19:09.484Z,0.90
2023-04-01T19:22:29.283Z,0.93
2023-04-01T19:25:40.260Z,0.45
2023-04-01T19:28:54.971Z,0.63
2023-04-01T19:32:06.475Z,0.57
2023-04-01T19:35:20.818Z,0.95
2023-04-01T19:38:38.664Z,0.90
2023-04-01T19:41:49.748Z,0.60
2023-04-01T19:45:06.153Z,0.77
2023-04-01T19:48:27.594Z,1.10
2023-04-01T19:51:36.781Z,0.98
2023-04-01T19:54:47.846Z,1.40
2023-04-01T19:58:03.177Z,1.42
2023-04-01T20:01:11.398Z,1.02
2023-04-01T20:04:19.691Z,1.10
2023-04-01T20:07:29.223Z,0.90
2023-04-01T20:10:37.245Z,0.73
2023-04-01T20:13:52.780Z,0.65
2023-04-01T20:17:04.507Z,0.82
2023-04-01T20:20:21.824Z,1.00
2023-04-01T20:23:43.794Z,1.10
2023-04-01T20:26:52.125Z,1.02
2023-04-01T20:30:18.725Z,1.00
2023-04-01T20:33:43.826Z,0.90
2023-04-01T20:36:59.178Z,1.08
2023-04-01T20:40:25.246Z,1.40
2023-04-01T20:43:59.114Z,1.10
2023-04-01T20:47:16.192Z,1.20
2023-04-01T20:50:27.845Z,1.58
2023-04-01T20:53:38.721Z,1.40
2023-04-01T20:56:57.243Z,1.20
2023-04-01T21:00:25.800Z,1.00
2023-04-01T21:03:41.868Z,0.88
2023-04-01T21:07:10.554Z,1.00
2023-04-01T21:10:41.164Z,1.15
2023-04-01T21:13:55.641Z,0.90
2023-04-01T21:17:09.685Z,1.10
2023-04-01T21:20:30.042Z,1.30
2023-04-01T21:23:48.526Z,0.90
2023-04-01T21:26:56.763Z,0.70
2023-04-01T21:30:08.583Z,0.90
2023-04-01T21:33:28.021Z,0.80
2023-04-01T21:36:52.230Z,0.65
2023-04-01T21:40:12.379Z,0.60
2023-04-01T21:43:26.365Z,0.50
2023-04-01T21:47:09.510Z,0.30
2023-04-01T21:50:36.083Z,0.50
2023-04-01T21:54:08.332Z,0.40
2023-04-01T21:57:38.279Z,0.40
2023-04-01T22:00:49.677Z,0.50
2023-04-01T22:04:27.780Z,0.60
2023-04-01T22:07:38.686Z,0.40
2023-04-01T22:10:48.106Z,0.40
2023-04-01T22:13:56.081Z,0.63
2023-04-01T22:16:59.416Z,0.38
2023-04-01T22:20:17.693Z,0.30
2023-04-01T22:23:27.435Z,0.47
2023-04-01T22:26:38.303Z,0.55
2023-04-01T22:29:44.400Z,0.28
2023-04-01T22:32:49.510Z,0.32
2023-04-01T22:35:59.586Z,0.30
2023-04-01T22:39:12.727Z,0.25
2023-04-01T22:42:35.484Z,0.38
2023-04-01T22:46:05.762Z,0.50
2023-04-01T22:49:17.616Z,0.50
2023-04-01T22:52:29.715Z,0.20
2023-04-01T22:58:43.786Z,0.38
2023-04-01T23:01:50.693Z,0.40
2023-04-01T23:05:02.415Z,0.47
2023-04-01T23:08:25.619Z,0.40
2023-04-01T23:11:31.162Z,0.30
2023-04-01T23:14:50.562Z,0.40
2023-04-01T23:18:13.871Z,0.22
2023-04-01T23:21:22.490Z,0.75
2023-04-01T23:24:31.814Z,0.30
2023-04-01T23:27:40.025Z,0.50
2023-04-01T23:30:51.242Z,0.20
2023-04-01T23:33:55.855Z,0.22
2023-04-01T23:37:01.949Z,0.20
2023-04-01T23:40:06.152Z,0.50
2023-04-01T23:43:15.495Z,0.30
2023-04-01T23:46:18.799Z,0.25
2023-04-01T23:49:24.056Z,0.30
2023-04-01T23:52:28.792Z,0.28
2023-04-01T23:55:33.668Z,0.17
2023-04-01T23:58:45.103Z,0.50
